Time,TemperatureF,DewpointF,PressureIn,WindDirection,WindDirectionDegrees,WindSpeedMPH,WindSpeedGustMPH,Humidity,HourlyPrecipIn,Conditions,Clouds,dailyrainin,SolarRadiationWatts/m^2,SoftwareType,DateUTC
2013-03-31 00:01:00,39.4,20.9,30.26,SSE,163,3.0,4.0,47,0.00,,,0.00,0,LWC V2.00 B727,2013-03-31 06:01:00,
2013-03-31 00:06:00,39.7,20.6,30.27,South,171,1.0,3.0,46,0.00,,,0.00,0,LWC V2.00 B727,2013-03-31 06:06:00,
2013-03-31 00:11:00,39.8,20.7,30.26,South,171,2.0,4.0,46,0.00,,,0.00,0,LWC V2.00 B727,2013-03-31 06:11:00,
2013-03-31 00:16:00,40.0,20.9,30.26,South,174,2.0,4.0,46,0.00,,,0.00,0,LWC V2.00 B727,2013-03-31 06:16:00,
2013-03-31 00:21:00,40.1,21.0,30.26,South,175,1.0,3.0,46,0.00,,,0.00,0,LWC V2.00 B727,2013-03-31 06:21:00,
2013-03-31 00:26:00,40.3,20.7,30.26,SSE,165,2.0,2.0,45,0.00,,,0.00,0,LWC V2.00 B727,2013-03-31 06:26:00,
2013-03-31 00:31:00,40.4,20.8,30.26,SSE,163,0.0,1.0,45,0.00,,,0.00,0,LWC V2.00 B727,2013-03-31 06:31:00,
2013-03-31 00:36:00,40.5,21.9,30.27,SSE,163,1.0,1.0,47,0.00,,,0.00,0,LWC V2.00 B727,2013-03-31 06:36:00,
2013-03-31 00:41:00,40.5,22.4,30.27,SSE,161,0.0,1.0,48,0.00,,,0.00,0,LWC V2.00 B727,2013-03-31 06:41:00,
2013-03-31 00:46:00,40.5,22.9,30.27,SSE,161,0.0,2.0,49,0.00,,,0.00,0,LWC V2.00 B727,2013-03-31 06:46:00,
2013-03-31 00:51:00,40.6,22.5,30.27,SSE,161,2.0,2.0,48,0.00,,,0.00,0,LWC V2.00 B727,2013-03-31 06:51:00,
2013-03-31 00:56:00,40.7,21.5,30.26,SSE,166,2.0,3.0,46,0.00,,,0.00,0,LWC V2.00 B727,2013-03-31 06:56:00,
2013-03-31 01:01:00,40.8,21.6,30.26,SSE,165,2.0,4.0,46,0.00,,,0.00,0,LWC V2.00 B727,2013-03-31 07:01:00,
2013-03-31 01:06:00,41.0,21.8,30.26,SSE,163,1.0,2.0,46,0.00,,,0.00,0,LWC V2.00 B727,2013-03-31 07:06:00,
2013-03-31 01:11:00,41.2,21.0,30.25,SSE,150,1.0,3.0,44,0.00,,,0.00,0,LWC V2.00 B727,2013-03-31 07:11:00,
2013-03-31 01:16:00,41.3,21.0,30.25,SSE,157,1.0,3.0,44,0.00,,,0.00,0,LWC V2.00 B727,2013-03-31 07:16:00,
2013-03-31 01:21:00,41.4,21.1,30.25,SSE,155,0.0,3.0,44,0.00,,,0.00,0,LWC V2.00 B727,2013-03-31 07:21:00,
2013-03-31 01:26:00,41.0,22.3,30.25,East,101,1.0,3.0,47,0.00,,,0.00,0,LWC V2.00 B727,2013-03-31 07:26:00,
2013-03-31 01:31:00,41.1,21.9,30.25,East,98,0.0,0.0,46,0.00,,,0.00,0,LWC V2.00 B727,2013-03-31 07:31:00,
2013-03-31 01:36:00,41.1,21.9,30.25,East,101,1.0,2.0,46,0.00,,,0.00,0,LWC V2.00 B727,2013-03-31 07:36:00,
2013-03-31 01:41:00,40.9,21.7,30.25,ESE,113,2.0,3.0,46,0.00,,,0.00,0,LWC V2.00 B727,2013-03-31 07:41:00,
2013-03-31 01:46:00,40.5,21.4,30.25,ESE,113,0.0,1.0,46,0.00,,,0.00,0,LWC V2.00 B727,2013-03-31 07:46:00,
2013-03-31 01:51:00,40.3,21.2,30.25,ESE,113,1.0,1.0,46,0.00,,,0.00,0,LWC V2.00 B727,2013-03-31 07:51:00,
2013-03-31 01:56:00,39.8,21.2,30.25,ESE,113,0.0,0.0,47,0.00,,,0.00,0,LWC V2.00 B727,2013-03-31 07:56:00,
2013-03-31 02:01:00,39.3,21.3,30.25,ESE,113,0.0,1.0,48,0.00,,,0.00,0,LWC V2.00 B727,2013-03-31 08:01:00,
2013-03-31 02:06:00,38.7,21.2,30.25,ESE,113,0.0,3.0,49,0.00,,,0.00,0,LWC V2.00 B727,2013-03-31 08:06:00,
2013-03-31 02:11:00,38.4,21.9,30.25,ESE,113,0.0,0.0,51,0.00,,,0.00,0,LWC V2.00 B727,2013-03-31 08:11:00,
2013-03-31 02:16:00,38.2,21.7,30.25,ESE,119,1.0,2.0,51,0.00,,,0.00,0,LWC V2.00 B727,2013-03-31 08:16:00,
2013-03-31 02:21:00,37.9,21.9,30.24,SSE,152,3.0,4.0,52,0.00,,,0.00,0,LWC V2.00 B727,2013-03-31 08:21:00,
2013-03-31 02:26:00,37.7,22.6,30.24,SSE,152,1.0,3.0,54,0.00,,,0.00,0,LWC V2.00 B727,2013-03-31 08:26:00,
2013-03-31 02:31:00,37.8,23.1,30.24,South,179,1.0,3.0,55,0.00,,,0.00,0,LWC V2.00 B727,2013-03-31 08:31:00,
2013-03-31 02:37:00,37.9,23.2,30.24,South,170,2.0,3.0,55,0.00,,,0.00,0,LWC V2.00 B727,2013-03-31 08:37:00,
2013-03-31 02:42:00,38.0,23.7,30.24,SSE,153,0.0,3.0,56,0.00,,,0.00,0,LWC V2.00 B727,2013-03-31 08:42:00,
2013-03-31 02:47:00,38.2,24.3,30.24,SSE,156,2.0,3.0,57,0.00,,,0.00,0,LWC V2.00 B727,2013-03-31 08:47:00,
2013-03-31 02:52:00,38.4,24.1,30.24,SSE,160,1.0,4.0,56,0.00,,,0.00,0,LWC V2.00 B727,2013-03-31 08:52:00,
2013-03-31 02:57:00,38.8,24.0,30.24,SSE,159,1.0,3.0,55,0.00,,,0.00,0,LWC V2.00 B727,2013-03-31 08:57:00,
2013-03-31 03:01:00,38.7,23.1,30.24,SE,144,0.0,3.0,53,0.00,,,0.00,0,LWC V2.00 B727,2013-03-31 09:01:00,
2013-03-31 03:06:00,38.6,22.5,30.24,SE,144,1.0,2.0,52,0.00,,,0.00,0,LWC V2.00 B727,2013-03-31 09:06:00,
2013-03-31 03:11:00,38.5,22.9,30.24,South,176,2.0,5.0,53,0.00,,,0.00,0,LWC V2.00 B727,2013-03-31 09:11:00,
2013-03-31 03:16:00,38.5,22.9,30.24,SSE,156,1.0,2.0,53,0.00,,,0.00,0,LWC V2.00 B727,2013-03-31 09:16:00,
2013-03-31 03:22:00,38.5,23.8,30.24,SE,126,1.0,4.0,55,0.00,,,0.00,0,LWC V2.00 B727,2013-03-31 09:22:00,
2013-03-31 03:27:00,38.5,23.3,30.24,ESE,109,0.0,2.0,54,0.00,,,0.00,0,LWC V2.00 B727,2013-03-31 09:27:00,
2013-03-31 03:32:00,38.3,22.2,30.24,ESE,110,2.0,2.0,52,0.00,,,0.00,0,LWC V2.00 B727,2013-03-31 09:32:00,
2013-03-31 03:37:00,37.5,21.9,30.24,ESE,114,0.0,0.0,53,0.00,,,0.00,0,LWC V2.00 B727,2013-03-31 09:37:00,
2013-03-31 03:42:00,36.8,21.7,30.24,ESE,113,0.0,1.0,54,0.00,,,0.00,0,LWC V2.00 B727,2013-03-31 09:42:00,
2013-03-31 03:47:00,36.4,21.8,30.24,ESE,107,1.0,3.0,55,0.00,,,0.00,0,LWC V2.00 B727,2013-03-31 09:47:00,
2013-03-31 03:52:00,36.4,22.2,30.23,East,101,0.0,2.0,56,0.00,,,0.00,0,LWC V2.00 B727,2013-03-31 09:52:00,
2013-03-31 03:57:00,36.4,22.2,30.23,East,101,0.0,1.0,56,0.00,,,0.00,0,LWC V2.00 B727,2013-03-31 09:57:00,
2013-03-31 04:02:00,35.6,21.5,30.24,SSE,148,2.0,3.0,56,0.00,,,0.00,0,LWC V2.00 B727,2013-03-31 10:02:00,
2013-03-31 04:07:00,35.1,21.8,30.24,SE,137,1.0,3.0,58,0.00,,,0.00,0,LWC V2.00 B727,2013-03-31 10:07:00,
2013-03-31 04:11:00,34.8,21.5,30.24,SE,138,0.0,2.0,58,0.00,,,0.00,0,LWC V2.00 B727,2013-03-31 10:11:00,
2013-03-31 04:16:00,34.4,20.8,30.24,SE,138,0.0,1.0,57,0.00,,,0.00,0,LWC V2.00 B727,2013-03-31 10:16:00,
2013-03-31 04:21:00,34.2,21.4,30.24,SE,137,0.0,1.0,59,0.00,,,0.00,0,LWC V2.00 B727,2013-03-31 10:21:00,
2013-03-31 04:26:00,34.0,22.0,30.23,SE,134,1.0,2.0,61,0.00,,,0.00,0,LWC V2.00 B727,2013-03-31 10:26:00,
2013-03-31 04:32:00,33.8,21.0,30.24,SE,134,0.0,0.0,59,0.00,,,0.00,0,LWC V2.00 B727,2013-03-31 10:32:00,
2013-03-31 04:37:00,33.5,21.1,30.24,SE,134,0.0,0.0,60,0.00,,,0.00,0,LWC V2.00 B727,2013-03-31 10:37:00,
2013-03-31 04:42:00,33.2,20.8,30.24,SE,134,0.0,2.0,60,0.00,,,0.00,0,LWC V2.00 B727,2013-03-31 10:42:00,
2013-03-31 04:46:00,33.1,21.1,30.24,SE,134,1.0,3.0,61,0.00,,,0.00,0,LWC V2.00 B727,2013-03-31 10:46:00,
2013-03-31 04:51:00,33.4,22.2,30.24,ESE,102,0.0,3.0,63,0.00,,,0.00,0,LWC V2.00 B727,2013-03-31 10:51:00,
2013-03-31 04:56:00,33.8,22.6,30.24,ESE,103,0.0,2.0,63,0.00,,,0.00,0,LWC V2.00 B727,2013-03-31 10:56:00,
2013-03-31 05:01:00,34.0,22.0,30.24,ESE,104,0.0,2.0,61,0.00,,,0.00,0,LWC V2.00 B727,2013-03-31 11:01:00,
2013-03-31 05:06:00,33.8,21.4,30.24,ESE,105,1.0,3.0,60,0.00,,,0.00,0,LWC V2.00 B727,2013-03-31 11:06:00,
2013-03-31 05:11:00,33.5,21.5,30.23,ESE,110,1.0,3.0,61,0.00,,,0.00,0,LWC V2.00 B727,2013-03-31 11:11:00,
2013-03-31 05:16:00,33.5,21.5,30.23,ESE,111,0.0,0.0,61,0.00,,,0.00,0,LWC V2.00 B727,2013-03-31 11:16:00,
2013-03-31 05:21:00,33.3,21.3,30.24,ESE,111,0.0,0.0,61,0.00,,,0.00,0,LWC V2.00 B727,2013-03-31 11:21:00,
2013-03-31 05:26:00,33.1,20.4,30.24,ESE,111,0.0,0.0,59,0.00,,,0.00,0,LWC V2.00 B727,2013-03-31 11:26:00,
2013-03-31 05:31:00,32.8,21.2,30.23,ESE,111,0.0,0.0,62,0.00,,,0.00,0,LWC V2.00 B727,2013-03-31 11:31:00,
2013-03-31 05:36:00,32.6,21.4,30.24,ESE,111,0.0,1.0,63,0.00,,,0.00,0,LWC V2.00 B727,2013-03-31 11:36:00,
2013-03-31 05:41:00,32.4,21.2,30.24,ESE,111,0.0,2.0,63,0.00,,,0.00,0,LWC V2.00 B727,2013-03-31 11:41:00,
2013-03-31 05:46:00,32.3,21.1,30.24,ESE,111,0.0,0.0,63,0.00,,,0.00,0,LWC V2.00 B727,2013-03-31 11:46:00,
2013-03-31 05:51:00,32.2,21.0,30.24,ESE,111,0.0,0.0,63,0.00,,,0.00,0,LWC V2.00 B727,2013-03-31 11:51:00,
2013-03-31 05:57:00,32.1,20.9,30.25,ESE,111,0.0,0.0,63,0.00,,,0.00,0,LWC V2.00 B727,2013-03-31 11:57:00,
2013-03-31 06:01:00,31.8,20.7,30.25,ESE,111,0.0,0.0,63,0.00,,,0.00,0,LWC V2.00 B727,2013-03-31 12:01:00,
2013-03-31 06:06:00,31.5,21.1,30.25,ESE,111,0.0,1.0,65,0.00,,,0.00,0,LWC V2.00 B727,2013-03-31 12:06:00,
2013-03-31 06:11:00,31.4,21.4,30.25,ESE,111,2.0,3.0,66,0.00,,,0.00,0,LWC V2.00 B727,2013-03-31 12:11:00,
2013-03-31 06:16:00,31.3,21.6,30.25,SE,142,2.0,4.0,67,0.00,,,0.00,0,LWC V2.00 B727,2013-03-31 12:16:00,
2013-03-31 06:21:00,31.3,21.3,30.25,SE,142,0.0,1.0,66,0.00,,,0.00,0,LWC V2.00 B727,2013-03-31 12:21:00,
2013-03-31 06:26:00,31.4,21.7,30.25,SE,143,2.0,2.0,67,0.00,,,0.00,0,LWC V2.00 B727,2013-03-31 12:26:00,
2013-03-31 06:31:00,31.5,21.8,30.25,SSE,161,2.0,4.0,67,0.00,,,0.00,0,LWC V2.00 B727,2013-03-31 12:31:00,
2013-03-31 06:36:00,31.5,21.8,30.26,South,173,1.0,3.0,67,0.00,,,0.00,0,LWC V2.00 B727,2013-03-31 12:36:00,
2013-03-31 06:41:00,31.3,21.6,30.26,South,171,3.0,3.0,67,0.00,,,0.00,0,LWC V2.00 B727,2013-03-31 12:41:00,
2013-03-31 06:46:00,31.2,21.9,30.26,SSE,165,3.0,3.0,68,0.00,,,0.00,0,LWC V2.00 B727,2013-03-31 12:46:00,
2013-03-31 06:51:00,31.2,21.9,30.26,SSE,163,0.0,1.0,68,0.00,,,0.00,5,LWC V2.00 B727,2013-03-31 12:51:00,
2013-03-31 06:56:00,31.1,21.8,30.26,SSE,155,0.0,2.0,68,0.00,,,0.00,7,LWC V2.00 B727,2013-03-31 12:56:00,
2013-03-31 07:01:00,30.9,21.6,30.26,SSE,149,0.0,1.0,68,0.00,,,0.00,11,LWC V2.00 B727,2013-03-31 13:01:00,
2013-03-31 07:06:00,30.8,21.9,30.27,SE,146,0.0,1.0,69,0.00,,,0.00,14,LWC V2.00 B727,2013-03-31 13:06:00,
2013-03-31 07:11:00,30.7,21.8,30.27,SSE,148,0.0,2.0,69,0.00,,,0.00,16,LWC V2.00 B727,2013-03-31 13:11:00,
2013-03-31 07:16:00,30.7,21.8,30.27,SSE,147,0.0,1.0,69,0.00,,,0.00,18,LWC V2.00 B727,2013-03-31 13:16:00,
2013-03-31 07:21:00,30.7,22.1,30.27,SSE,148,1.0,2.0,70,0.00,,,0.00,21,LWC V2.00 B727,2013-03-31 13:21:00,
2013-03-31 07:26:00,30.9,22.3,30.27,SSE,149,1.0,2.0,70,0.00,,,0.00,53,LWC V2.00 B727,2013-03-31 13:26:00,
2013-03-31 07:31:00,31.6,23.0,30.27,SSE,161,2.0,4.0,70,0.00,,,0.00,65,LWC V2.00 B727,2013-03-31 13:31:00,
2013-03-31 07:36:00,32.4,23.4,30.27,SSE,157,3.0,4.0,69,0.00,,,0.00,90,LWC V2.00 B727,2013-03-31 13:36:00,
2013-03-31 07:41:00,33.3,23.9,30.27,SE,124,3.0,4.0,68,0.00,,,0.00,111,LWC V2.00 B727,2013-03-31 13:41:00,
2013-03-31 07:46:00,34.4,24.6,30.28,SSE,168,3.0,4.0,67,0.00,,,0.00,134,LWC V2.00 B727,2013-03-31 13:46:00,
2013-03-31 07:51:00,35.2,24.6,30.28,SSE,167,2.0,2.0,65,0.00,,,0.00,153,LWC V2.00 B727,2013-03-31 13:51:00,
2013-03-31 07:56:00,35.9,25.3,30.28,SSE,167,1.0,3.0,65,0.00,,,0.00,178,LWC V2.00 B727,2013-03-31 13:56:00,
2013-03-31 08:01:00,36.6,25.6,30.27,SSE,167,2.0,3.0,64,0.00,,,0.00,202,LWC V2.00 B727,2013-03-31 14:01:00,
2013-03-31 08:06:00,37.5,26.1,30.27,SSE,167,0.0,2.0,63,0.00,,,0.00,227,LWC V2.00 B727,2013-03-31 14:06:00,
2013-03-31 08:11:00,38.4,26.5,30.27,SSE,167,0.0,2.0,62,0.00,,,0.00,248,LWC V2.00 B727,2013-03-31 14:11:00,
2013-03-31 08:16:00,39.4,27.1,30.27,SSE,167,0.0,1.0,61,0.00,,,0.00,267,LWC V2.00 B727,2013-03-31 14:16:00,
2013-03-31 08:21:00,40.5,26.9,30.27,SSE,167,2.0,2.0,58,0.00,,,0.00,288,LWC V2.00 B727,2013-03-31 14:21:00,
2013-03-31 08:26:00,41.5,27.0,30.27,SSE,167,0.0,2.0,56,0.00,,,0.00,304,LWC V2.00 B727,2013-03-31 14:26:00,
2013-03-31 08:31:00,42.0,27.0,30.27,SSE,167,0.0,0.0,55,0.00,,,0.00,325,LWC V2.00 B727,2013-03-31 14:31:00,
2013-03-31 08:36:00,42.9,28.3,30.27,SSE,167,0.0,1.0,56,0.00,,,0.00,345,LWC V2.00 B727,2013-03-31 14:36:00,
2013-03-31 08:41:00,44.0,28.4,30.27,SSE,161,2.0,2.0,54,0.00,,,0.00,366,LWC V2.00 B727,2013-03-31 14:41:00,
2013-03-31 08:46:00,45.0,28.4,30.28,SSE,163,0.0,0.0,52,0.00,,,0.00,383,LWC V2.00 B727,2013-03-31 14:46:00,
2013-03-31 08:51:00,45.9,28.8,30.27,East,79,1.0,3.0,51,0.00,,,0.00,404,LWC V2.00 B727,2013-03-31 14:51:00,
2013-03-31 08:56:00,46.8,28.7,30.27,WSW,253,2.0,7.0,49,0.00,,,0.00,422,LWC V2.00 B727,2013-03-31 14:56:00,
2013-03-31 09:01:00,47.6,27.9,30.27,NW,321,1.0,3.0,46,0.00,,,0.00,438,LWC V2.00 B727,2013-03-31 15:01:00,
2013-03-31 09:06:00,48.2,29.9,30.27,West,281,4.0,4.0,49,0.00,,,0.00,455,LWC V2.00 B727,2013-03-31 15:06:00,
2013-03-31 09:11:00,48.7,28.9,30.27,NNW,336,4.0,4.0,46,0.00,,,0.00,471,LWC V2.00 B727,2013-03-31 15:11:00,
2013-03-31 09:16:00,49.3,29.4,30.27,WSW,257,1.0,4.0,46,0.00,,,0.00,494,LWC V2.00 B727,2013-03-31 15:16:00,
2013-03-31 09:21:00,49.8,28.8,30.27,West,269,4.0,4.0,44,0.00,,,0.00,512,LWC V2.00 B727,2013-03-31 15:21:00,
2013-03-31 09:26:00,50.2,28.6,30.27,WSW,238,0.0,7.0,43,0.00,,,0.00,531,LWC V2.00 B727,2013-03-31 15:26:00,
2013-03-31 09:31:00,50.5,30.0,30.27,NNW,337,1.0,4.0,45,0.00,,,0.00,548,LWC V2.00 B727,2013-03-31 15:31:00,
2013-03-31 09:36:00,51.0,28.7,30.27,North,0,0.0,5.0,42,0.00,,,0.00,564,LWC V2.00 B727,2013-03-31 15:36:00,
2013-03-31 09:41:00,51.4,29.1,30.26,NW,319,1.0,5.0,42,0.00,,,0.00,580,LWC V2.00 B727,2013-03-31 15:41:00,
2013-03-31 09:46:00,51.7,29.4,30.26,ENE,59,1.0,5.0,42,0.00,,,0.00,598,LWC V2.00 B727,2013-03-31 15:46:00,
2013-03-31 09:51:00,52.1,29.7,30.26,SW,236,1.0,5.0,42,0.00,,,0.00,617,LWC V2.00 B727,2013-03-31 15:51:00,
2013-03-31 09:56:00,52.3,29.3,30.26,SW,232,5.0,6.0,41,0.00,,,0.00,635,LWC V2.00 B727,2013-03-31 15:56:00,
2013-03-31 10:01:00,52.5,29.5,30.26,SW,219,4.0,7.0,41,0.00,,,0.00,650,LWC V2.00 B727,2013-03-31 16:01:00,
2013-03-31 10:06:00,52.7,29.7,30.26,North,0,1.0,9.0,41,0.00,,,0.00,664,LWC V2.00 B727,2013-03-31 16:06:00,
2013-03-31 10:11:00,52.8,30.3,30.26,SSW,209,0.0,6.0,42,0.00,,,0.00,675,LWC V2.00 B727,2013-03-31 16:11:00,
2013-03-31 10:16:00,53.2,29.5,30.26,WSW,252,5.0,8.0,40,0.00,,,0.00,694,LWC V2.00 B727,2013-03-31 16:16:00,
2013-03-31 10:21:00,53.5,29.2,30.25,South,187,6.0,8.0,39,0.00,,,0.00,712,LWC V2.00 B727,2013-03-31 16:21:00,
2013-03-31 10:26:00,53.7,30.0,30.26,SW,227,6.0,7.0,40,0.00,,,0.00,728,LWC V2.00 B727,2013-03-31 16:26:00,
2013-03-31 10:31:00,54.0,30.2,30.25,SSW,211,3.0,5.0,40,0.00,,,0.00,740,LWC V2.00 B727,2013-03-31 16:31:00,
2013-03-31 10:37:00,54.2,30.4,30.25,WSW,245,5.0,7.0,40,0.00,,,0.00,754,LWC V2.00 B727,2013-03-31 16:37:00,
2013-03-31 10:42:00,54.4,30.0,30.25,South,184,6.0,8.0,39,0.00,,,0.00,768,LWC V2.00 B727,2013-03-31 16:42:00,
2013-03-31 10:47:00,54.5,31.3,30.25,WSW,242,0.0,7.0,41,0.00,,,0.00,780,LWC V2.00 B727,2013-03-31 16:47:00,
2013-03-31 10:52:00,55.1,31.2,30.25,SW,236,3.0,4.0,40,0.00,,,0.00,791,LWC V2.00 B727,2013-03-31 16:52:00,
2013-03-31 10:57:00,55.4,31.5,30.25,WSW,247,5.0,10.0,40,0.00,,,0.00,805,LWC V2.00 B727,2013-03-31 16:57:00,
2013-03-31 11:02:00,55.8,31.2,30.25,SSW,213,7.0,10.0,39,0.00,,,0.00,819,LWC V2.00 B727,2013-03-31 17:02:00,
2013-03-31 11:07:00,55.6,30.4,30.25,WSW,238,3.0,8.0,38,0.00,,,0.00,830,LWC V2.00 B727,2013-03-31 17:07:00,
2013-03-31 11:12:00,55.9,31.3,30.25,SSW,196,1.0,7.0,39,0.00,,,0.00,838,LWC V2.00 B727,2013-03-31 17:12:00,
2013-03-31 11:17:00,56.6,31.3,30.25,SW,224,4.0,11.0,38,0.00,,,0.00,853,LWC V2.00 B727,2013-03-31 17:17:00,
2013-03-31 11:22:00,57.2,31.2,30.25,NNW,346,4.0,6.0,37,0.00,,,0.00,863,LWC V2.00 B727,2013-03-31 17:22:00,
2013-03-31 11:27:00,57.6,31.5,30.25,SSW,211,4.0,5.0,37,0.00,,,0.00,872,LWC V2.00 B727,2013-03-31 17:27:00,
2013-03-31 11:32:00,58.0,31.9,30.25,SSW,194,4.0,6.0,37,0.00,,,0.00,886,LWC V2.00 B727,2013-03-31 17:32:00,
2013-03-31 11:37:00,58.4,30.9,30.25,WSW,250,2.0,8.0,35,0.00,,,0.00,889,LWC V2.00 B727,2013-03-31 17:37:00,
2013-03-31 11:42:00,58.8,31.9,30.25,SW,217,6.0,9.0,36,0.00,,,0.00,900,LWC V2.00 B727,2013-03-31 17:42:00,
2013-03-31 11:47:00,59.0,29.9,30.25,SSW,213,2.0,5.0,33,0.00,,,0.00,912,LWC V2.00 B727,2013-03-31 17:47:00,
2013-03-31 11:52:00,59.3,31.7,30.25,West,281,1.0,3.0,35,0.00,,,0.00,919,LWC V2.00 B727,2013-03-31 17:52:00,
2013-03-31 11:57:00,59.7,30.6,30.25,NNE,17,7.0,10.0,33,0.00,,,0.00,925,LWC V2.00 B727,2013-03-31 17:57:00,
2013-03-31 12:02:00,59.6,31.2,30.24,SW,219,5.0,11.0,34,0.00,,,0.00,937,LWC V2.00 B727,2013-03-31 18:02:00,
2013-03-31 12:07:00,59.2,30.1,30.24,WSW,245,6.0,11.0,33,0.00,,,0.00,939,LWC V2.00 B727,2013-03-31 18:07:00,
2013-03-31 12:12:00,59.6,30.5,30.25,SW,235,7.0,11.0,33,0.00,,,0.00,951,LWC V2.00 B727,2013-03-31 18:12:00,
2013-03-31 12:17:00,59.8,31.4,30.24,WSW,238,2.0,8.0,34,0.00,,,0.00,954,LWC V2.00 B727,2013-03-31 18:17:00,
2013-03-31 12:22:00,60.3,30.3,30.24,WSW,240,7.0,9.0,32,0.00,,,0.00,969,LWC V2.00 B727,2013-03-31 18:22:00,
2013-03-31 12:27:00,60.2,29.5,30.24,WSW,245,3.0,6.0,31,0.00,,,0.00,969,LWC V2.00 B727,2013-03-31 18:27:00,
2013-03-31 12:32:00,60.4,30.4,30.24,SW,224,1.0,6.0,32,0.00,,,0.00,983,LWC V2.00 B727,2013-03-31 18:32:00,
2013-03-31 12:37:00,60.7,32.2,30.23,WSW,240,2.0,15.0,34,0.00,,,0.00,986,LWC V2.00 B727,2013-03-31 18:37:00,
2013-03-31 12:42:00,61.1,31.8,30.24,WSW,238,3.0,8.0,33,0.00,,,0.00,979,LWC V2.00 B727,2013-03-31 18:42:00,
2013-03-31 12:47:00,61.3,31.2,30.23,SSW,210,4.0,9.0,32,0.00,,,0.00,1002,LWC V2.00 B727,2013-03-31 18:47:00,
2013-03-31 12:52:00,60.9,30.1,30.23,NW,304,2.0,9.0,31,0.00,,,0.00,1013,LWC V2.00 B727,2013-03-31 18:52:00,
2013-03-31 12:57:00,61.0,30.9,30.23,South,190,4.0,7.0,32,0.00,,,0.00,1005,LWC V2.00 B727,2013-03-31 18:57:00,
2013-03-31 13:02:00,61.2,30.3,30.23,SW,229,7.0,9.0,31,0.00,,,0.00,1005,LWC V2.00 B727,2013-03-31 19:02:00,
2013-03-31 13:07:00,61.7,30.8,30.22,WSW,246,9.0,10.0,31,0.00,,,0.00,1004,LWC V2.00 B727,2013-03-31 19:07:00,
2013-03-31 13:12:00,61.4,30.5,30.23,SSW,205,14.0,15.0,31,0.00,,,0.00,1011,LWC V2.00 B727,2013-03-31 19:12:00,
2013-03-31 13:17:00,61.4,29.7,30.22,WSW,240,6.0,15.0,30,0.00,,,0.00,993,LWC V2.00 B727,2013-03-31 19:17:00,
2013-03-31 13:22:00,60.8,30.8,30.22,SW,235,5.0,7.0,32,0.00,,,0.00,997,LWC V2.00 B727,2013-03-31 19:22:00,
2013-03-31 13:27:00,60.8,30.0,30.22,WSW,238,4.0,12.0,31,0.00,,,0.00,1004,LWC V2.00 B727,2013-03-31 19:27:00,
2013-03-31 13:32:00,61.1,30.2,30.21,WSW,248,7.0,12.0,31,0.00,,,0.00,993,LWC V2.00 B727,2013-03-31 19:32:00,
2013-03-31 13:37:00,60.6,30.6,30.21,WSW,240,3.0,10.0,32,0.00,,,0.00,1063,LWC V2.00 B727,2013-03-31 19:37:00,
2013-03-31 13:42:00,60.7,30.7,30.21,SW,233,8.0,16.0,32,0.00,,,0.00,1037,LWC V2.00 B727,2013-03-31 19:42:00,
2013-03-31 13:47:00,61.2,31.1,30.21,SSW,212,7.0,7.0,32,0.00,,,0.00,1093,LWC V2.00 B727,2013-03-31 19:47:00,
2013-03-31 13:52:00,61.4,30.5,30.21,SW,227,6.0,10.0,31,0.00,,,0.00,1111,LWC V2.00 B727,2013-03-31 19:52:00,
2013-03-31 13:57:00,61.5,29.0,30.20,North,0,1.0,13.0,29,0.00,,,0.00,425,LWC V2.00 B727,2013-03-31 19:57:00,
2013-03-31 14:02:00,60.8,31.5,30.21,WSW,242,7.0,10.0,33,0.00,,,0.00,1032,LWC V2.00 B727,2013-03-31 20:02:00,
2013-03-31 14:07:00,60.9,30.8,30.20,SW,229,4.0,8.0,32,0.00,,,0.00,1005,LWC V2.00 B727,2013-03-31 20:07:00,
2013-03-31 14:12:00,61.4,30.5,30.20,WSW,243,9.0,14.0,31,0.00,,,0.00,969,LWC V2.00 B727,2013-03-31 20:12:00,
2013-03-31 14:17:00,61.2,31.9,30.20,SSW,205,4.0,6.0,33,0.00,,,0.00,318,LWC V2.00 B727,2013-03-31 20:17:00,
2013-03-31 14:22:00,61.4,29.7,30.20,North,5,3.0,10.0,30,0.00,,,0.00,1018,LWC V2.00 B727,2013-03-31 20:22:00,
2013-03-31 14:27:00,61.1,31.8,30.20,West,260,3.0,4.0,33,0.00,,,0.00,200,LWC V2.00 B727,2013-03-31 20:27:00,
2013-03-31 14:32:00,60.3,30.3,30.20,WSW,245,0.0,3.0,32,0.00,,,0.00,176,LWC V2.00 B727,2013-03-31 20:32:00,
2013-03-31 14:37:00,61.6,31.5,30.19,North,0,7.0,7.0,32,0.00,,,0.00,954,LWC V2.00 B727,2013-03-31 20:37:00,
2013-03-31 14:42:00,62.6,30.7,30.19,WSW,241,2.0,9.0,30,0.00,,,0.00,930,LWC V2.00 B727,2013-03-31 20:42:00,
2013-03-31 14:47:00,62.8,30.9,30.18,WSW,242,0.0,9.0,30,0.00,,,0.00,944,LWC V2.00 B727,2013-03-31 20:47:00,
2013-03-31 14:52:00,63.0,31.1,30.18,WSW,257,8.0,14.0,30,0.00,,,0.00,944,LWC V2.00 B727,2013-03-31 20:52:00,
2013-03-31 14:57:00,63.0,31.1,30.18,SW,217,6.0,18.0,30,0.00,,,0.00,940,LWC V2.00 B727,2013-03-31 20:57:00,
2013-03-31 15:02:00,63.5,32.3,30.18,WNW,299,3.0,5.0,31,0.00,,,0.00,940,LWC V2.00 B727,2013-03-31 21:02:00,
2013-03-31 15:07:00,64.1,32.0,30.17,WSW,250,2.0,11.0,30,0.00,,,0.00,958,LWC V2.00 B727,2013-03-31 21:07:00,
2013-03-31 15:12:00,64.3,30.5,30.17,SW,224,9.0,13.0,28,0.00,,,0.00,923,LWC V2.00 B727,2013-03-31 21:12:00,
2013-03-31 15:17:00,64.0,30.2,30.17,SSW,205,5.0,10.0,28,0.00,,,0.00,181,LWC V2.00 B727,2013-03-31 21:17:00,
2013-03-31 15:22:00,62.7,29.1,30.17,NW,323,6.0,6.0,28,0.00,,,0.00,981,LWC V2.00 B727,2013-03-31 21:22:00,
2013-03-31 15:27:00,62.6,29.0,30.17,West,267,7.0,7.0,28,0.00,,,0.00,995,LWC V2.00 B727,2013-03-31 21:27:00,
2013-03-31 15:32:00,62.3,28.8,30.17,WSW,249,6.0,10.0,28,0.00,,,0.00,401,LWC V2.00 B727,2013-03-31 21:32:00,
2013-03-31 15:37:00,61.4,28.9,30.16,SW,236,6.0,8.0,29,0.00,,,0.00,192,LWC V2.00 B727,2013-03-31 21:37:00,
2013-03-31 15:42:00,62.6,30.7,30.16,NNW,327,4.0,8.0,30,0.00,,,0.00,916,LWC V2.00 B727,2013-03-31 21:42:00,
2013-03-31 15:47:00,62.9,31.0,30.16,WSW,248,12.0,12.0,30,0.00,,,0.00,898,LWC V2.00 B727,2013-03-31 21:47:00,
2013-03-31 15:52:00,63.1,29.5,30.16,SW,217,2.0,10.0,28,0.00,,,0.00,868,LWC V2.00 B727,2013-03-31 21:52:00,
2013-03-31 15:57:00,62.9,30.2,30.16,SW,221,0.0,7.0,29,0.00,,,0.00,867,LWC V2.00 B727,2013-03-31 21:57:00,
2013-03-31 16:02:00,63.3,29.6,30.16,SSW,194,6.0,11.0,28,0.00,,,0.00,872,LWC V2.00 B727,2013-03-31 22:02:00,
2013-03-31 16:07:00,62.3,28.8,30.16,NW,309,0.0,7.0,28,0.00,,,0.00,200,LWC V2.00 B727,2013-03-31 22:07:00,
2013-03-31 16:12:00,61.5,29.8,30.15,South,178,1.0,8.0,30,0.00,,,0.00,211,LWC V2.00 B727,2013-03-31 22:12:00,
2013-03-31 16:17:00,61.8,29.2,30.15,SW,234,1.0,4.0,29,0.00,,,0.00,218,LWC V2.00 B727,2013-03-31 22:17:00,
2013-03-31 16:22:00,61.5,29.0,30.15,SSW,213,4.0,6.0,29,0.00,,,0.00,802,LWC V2.00 B727,2013-03-31 22:22:00,
2013-03-31 16:27:00,61.8,30.8,30.15,North,9,1.0,7.0,31,0.00,,,0.00,791,LWC V2.00 B727,2013-03-31 22:27:00,
2013-03-31 16:32:00,62.9,29.3,30.15,NNW,337,0.0,6.0,28,0.00,,,0.00,322,LWC V2.00 B727,2013-03-31 22:32:00,
2013-03-31 16:37:00,63.0,29.4,30.15,SW,220,0.0,7.0,28,0.00,,,0.00,777,LWC V2.00 B727,2013-03-31 22:37:00,
2013-03-31 16:42:00,64.2,30.4,30.15,South,184,4.0,16.0,28,0.00,,,0.00,703,LWC V2.00 B727,2013-03-31 22:42:00,
2013-03-31 16:47:00,64.5,30.7,30.14,SW,221,2.0,6.0,28,0.00,,,0.00,684,LWC V2.00 B727,2013-03-31 22:47:00,
2013-03-31 16:52:00,65.2,30.4,30.14,SW,236,1.0,7.0,27,0.00,,,0.00,612,LWC V2.00 B727,2013-03-31 22:52:00,
2013-03-31 16:57:00,65.1,30.3,30.14,SSW,213,9.0,11.0,27,0.00,,,0.00,564,LWC V2.00 B727,2013-03-31 22:57:00,
2013-03-31 17:02:00,64.2,29.5,30.14,SW,235,1.0,7.0,27,0.00,,,0.00,573,LWC V2.00 B727,2013-03-31 23:02:00,
2013-03-31 17:07:00,63.7,30.0,30.14,SW,234,0.0,4.0,28,0.00,,,0.00,153,LWC V2.00 B727,2013-03-31 23:07:00,
2013-03-31 17:12:00,62.9,28.4,30.14,South,185,4.0,7.0,27,0.00,,,0.00,109,LWC V2.00 B727,2013-03-31 23:12:00,
2013-03-31 17:17:00,61.7,28.3,30.14,WSW,258,5.0,12.0,28,0.00,,,0.00,399,LWC V2.00 B727,2013-03-31 23:17:00,
2013-03-31 17:22:00,61.6,28.2,30.13,NNW,331,3.0,9.0,28,0.00,,,0.00,598,LWC V2.00 B727,2013-03-31 23:22:00,
2013-03-31 17:27:00,62.3,29.6,30.12,SW,229,6.0,12.0,29,0.00,,,0.00,566,LWC V2.00 B727,2013-03-31 23:27:00,
2013-03-31 17:32:00,62.8,28.3,30.12,SW,236,3.0,8.0,27,0.00,,,0.00,450,LWC V2.00 B727,2013-03-31 23:32:00,
2013-03-31 17:37:00,62.8,28.3,30.13,North,349,2.0,6.0,27,0.00,,,0.00,461,LWC V2.00 B727,2013-03-31 23:37:00,
2013-03-31 17:42:00,62.3,27.9,30.12,SSW,202,5.0,8.0,27,0.00,,,0.00,427,LWC V2.00 B727,2013-03-31 23:42:00,
2013-03-31 17:47:00,61.6,27.3,30.12,SSW,206,9.0,13.0,27,0.00,,,0.00,362,LWC V2.00 B727,2013-03-31 23:47:00,
2013-03-31 17:52:00,60.4,26.3,30.12,SW,219,7.0,10.0,27,0.00,,,0.00,146,LWC V2.00 B727,2013-03-31 23:52:00,
2013-03-31 17:57:00,60.0,27.7,30.12,SSW,204,5.0,9.0,29,0.00,,,0.00,366,LWC V2.00 B727,2013-03-31 23:57:00,
2013-03-31 18:02:00,60.1,26.9,30.12,WSW,240,3.0,10.0,28,0.00,,,0.00,355,LWC V2.00 B727,2013-04-01 00:02:00,
2013-03-31 18:07:00,60.2,27.8,30.12,SSW,203,2.0,5.0,29,0.00,,,0.00,118,LWC V2.00 B727,2013-04-01 00:07:00,
2013-03-31 18:12:00,59.8,27.5,30.13,SW,216,3.0,5.0,29,0.00,,,0.00,100,LWC V2.00 B727,2013-04-01 00:12:00,
2013-03-31 18:17:00,59.3,27.1,30.12,WSW,246,5.0,6.0,29,0.00,,,0.00,185,LWC V2.00 B727,2013-04-01 00:17:00,
2013-03-31 18:22:00,59.0,26.8,30.12,WSW,237,4.0,6.0,29,0.00,,,0.00,176,LWC V2.00 B727,2013-04-01 00:22:00,
2013-03-31 18:27:00,59.0,25.9,30.12,WSW,254,2.0,10.0,28,0.00,,,0.00,160,LWC V2.00 B727,2013-04-01 00:27:00,
2013-03-31 18:32:00,59.1,26.0,30.12,North,5,0.0,7.0,28,0.00,,,0.00,146,LWC V2.00 B727,2013-04-01 00:32:00,
2013-03-31 18:37:00,59.3,26.2,30.12,SW,215,2.0,7.0,28,0.00,,,0.00,97,LWC V2.00 B727,2013-04-01 00:37:00,
2013-03-31 18:42:00,59.1,26.9,30.12,SSW,205,2.0,3.0,29,0.00,,,0.00,100,LWC V2.00 B727,2013-04-01 00:42:00,
2013-03-31 18:47:00,59.0,25.1,30.13,SW,229,3.0,9.0,27,0.00,,,0.00,56,LWC V2.00 B727,2013-04-01 00:47:00,
2013-03-31 18:52:00,58.9,24.1,30.13,SW,228,1.0,10.0,26,0.00,,,0.00,37,LWC V2.00 B727,2013-04-01 00:52:00,
2013-03-31 18:57:00,58.5,24.6,30.13,SW,219,1.0,4.0,27,0.00,,,0.00,25,LWC V2.00 B727,2013-04-01 00:57:00,
2013-03-31 19:02:00,58.0,23.3,30.14,SSW,213,5.0,9.0,26,0.00,,,0.00,18,LWC V2.00 B727,2013-04-01 01:02:00,
2013-03-31 19:07:00,57.5,22.9,30.14,WSW,240,2.0,7.0,26,0.00,,,0.00,12,LWC V2.00 B727,2013-04-01 01:07:00,
2013-03-31 19:12:00,56.9,22.4,30.14,SW,234,1.0,9.0,26,0.00,,,0.00,9,LWC V2.00 B727,2013-04-01 01:12:00,
2013-03-31 19:17:00,56.4,22.8,30.14,WSW,244,5.0,6.0,27,0.00,,,0.00,7,LWC V2.00 B727,2013-04-01 01:17:00,
2013-03-31 19:22:00,56.0,22.5,30.14,SW,230,1.0,5.0,27,0.00,,,0.00,0,LWC V2.00 B727,2013-04-01 01:22:00,
2013-03-31 19:27:00,55.6,22.2,30.14,SW,233,5.0,6.0,27,0.00,,,0.00,0,LWC V2.00 B727,2013-04-01 01:27:00,
2013-03-31 19:30:00,55.5,22.1,30.14,SW,233,3.0,9.0,27,0.00,,,0.00,0,LWC V2.00 B727,2013-04-01 01:30:00,
2013-03-31 19:32:00,55.2,21.8,30.14,SW,229,6.0,8.0,27,0.00,,,0.00,0,LWC V2.00 B727,2013-04-01 01:32:00,
2013-03-31 19:40:00,54.9,21.6,30.15,SW,235,4.0,9.0,27,0.00,,,0.00,0,LWC V2.00 B727,2013-04-01 01:40:00,
2013-03-31 19:50:00,54.4,22.0,30.15,SW,227,3.0,9.0,28,0.00,,,0.00,0,LWC V2.00 B727,2013-04-01 01:50:00,
2013-03-31 20:09:00,53.5,22.0,30.17,WSW,238,0.0,1.0,29,0.00,,,0.00,0,LWC V2.00 B727,2013-04-01 02:09:00,
2013-03-31 20:14:00,53.3,21.9,30.17,WSW,238,0.0,1.0,29,0.00,,,0.00,0,LWC V2.00 B727,2013-04-01 02:14:00,
2013-03-31 20:19:00,53.0,22.4,30.18,WSW,238,0.0,0.0,30,0.00,,,0.00,0,LWC V2.00 B727,2013-04-01 02:19:00,
2013-03-31 20:24:00,52.7,22.1,30.18,WSW,238,0.0,1.0,30,0.00,,,0.00,0,LWC V2.00 B727,2013-04-01 02:24:00,
2013-03-31 20:29:00,52.5,22.0,30.18,WSW,238,0.0,0.0,30,0.00,,,0.00,0,LWC V2.00 B727,2013-04-01 02:29:00,
2013-03-31 20:34:00,52.2,21.7,30.18,WSW,238,0.0,0.0,30,0.00,,,0.00,0,LWC V2.00 B727,2013-04-01 02:34:00,
2013-03-31 20:39:00,51.7,22.1,30.18,WSW,238,0.0,0.0,31,0.00,,,0.00,0,LWC V2.00 B727,2013-04-01 02:39:00,
2013-03-31 20:44:00,51.3,22.5,30.18,WSW,238,0.0,0.0,32,0.00,,,0.00,0,LWC V2.00 B727,2013-04-01 02:44:00,
2013-03-31 20:49:00,50.7,21.9,30.18,WSW,238,0.0,0.0,32,0.00,,,0.00,0,LWC V2.00 B727,2013-04-01 02:49:00,
2013-03-31 20:54:00,50.0,22.0,30.19,WSW,238,0.0,0.0,33,0.00,,,0.00,0,LWC V2.00 B727,2013-04-01 02:54:00,
2013-03-31 20:59:00,49.3,22.8,30.19,WSW,238,0.0,0.0,35,0.00,,,0.00,0,LWC V2.00 B727,2013-04-01 02:59:00,
2013-03-31 21:04:00,48.3,23.3,30.19,SW,221,0.0,1.0,37,0.00,,,0.00,0,LWC V2.00 B727,2013-04-01 03:04:00,
2013-03-31 21:09:00,47.4,22.5,30.19,SW,217,0.0,2.0,37,0.00,,,0.00,0,LWC V2.00 B727,2013-04-01 03:09:00,
2013-03-31 21:14:00,46.7,22.5,30.19,SW,217,0.0,1.0,38,0.00,,,0.00,0,LWC V2.00 B727,2013-04-01 03:14:00,
2013-03-31 21:19:00,45.9,22.4,30.19,SW,217,0.0,1.0,39,0.00,,,0.00,0,LWC V2.00 B727,2013-04-01 03:19:00,
2013-03-31 21:24:00,45.0,22.1,30.19,SW,217,0.0,1.0,40,0.00,,,0.00,0,LWC V2.00 B727,2013-04-01 03:24:00,
2013-03-31 21:29:00,44.2,22.0,30.19,SW,217,0.0,1.0,41,0.00,,,0.00,0,LWC V2.00 B727,2013-04-01 03:29:00,
2013-03-31 21:34:00,43.5,21.9,30.19,South,174,1.0,2.0,42,0.00,,,0.00,0,LWC V2.00 B727,2013-04-01 03:34:00,
2013-03-31 21:39:00,43.2,21.7,30.19,SSE,165,0.0,1.0,42,0.00,,,0.00,0,LWC V2.00 B727,2013-04-01 03:39:00,
2013-03-31 21:44:00,42.9,21.4,30.19,SSE,163,0.0,0.0,42,0.00,,,0.00,0,LWC V2.00 B727,2013-04-01 03:44:00,
2013-03-31 21:49:00,42.7,21.2,30.20,SSE,163,0.0,1.0,42,0.00,,,0.00,0,LWC V2.00 B727,2013-04-01 03:49:00,
2013-03-31 21:54:00,42.4,21.0,30.20,SSE,163,0.0,1.0,42,0.00,,,0.00,0,LWC V2.00 B727,2013-04-01 03:54:00,
2013-03-31 21:59:00,42.2,21.3,30.20,SSE,163,0.0,0.0,43,0.00,,,0.00,0,LWC V2.00 B727,2013-04-01 03:59:00,
2013-03-31 22:00:00,42.1,21.2,30.20,SSE,163,0.0,1.0,43,0.00,,,0.00,0,LWC V2.00 B727,2013-04-01 04:00:00,
2013-03-31 22:01:00,42.1,21.2,30.20,SSE,163,0.0,1.0,43,0.00,,,0.00,0,LWC V2.00 B727,2013-04-01 04:01:00,
2013-03-31 22:06:00,42.0,21.1,30.20,SSE,163,0.0,0.0,43,0.00,,,0.00,0,LWC V2.00 B727,2013-04-01 04:06:00,
2013-03-31 22:07:00,42.0,21.1,30.20,SSE,163,0.0,0.0,43,0.00,,,0.00,0,LWC V2.00 B727,2013-04-01 04:07:00,
2013-03-31 22:12:00,41.9,21.1,30.20,SSE,163,0.0,2.0,43,0.00,,,0.00,0,LWC V2.00 B727,2013-04-01 04:12:00,
2013-03-31 22:17:00,41.7,20.9,30.20,SSE,161,0.0,2.0,43,0.00,,,0.00,0,LWC V2.00 B727,2013-04-01 04:17:00,
2013-03-31 22:22:00,41.6,21.3,30.20,SSE,153,2.0,3.0,44,0.00,,,0.00,0,LWC V2.00 B727,2013-04-01 04:22:00,
2013-03-31 22:27:00,41.5,21.2,30.20,SSE,157,2.0,2.0,44,0.00,,,0.00,0,LWC V2.00 B727,2013-04-01 04:27:00,
2013-03-31 22:31:00,41.6,21.9,30.20,SSE,161,3.0,3.0,45,0.00,,,0.00,0,LWC V2.00 B727,2013-04-01 04:31:00,
2013-03-31 22:36:00,41.6,21.9,30.20,SSE,160,1.0,3.0,45,0.00,,,0.00,0,LWC V2.00 B727,2013-04-01 04:36:00,
2013-03-31 22:41:00,41.6,21.9,30.20,SSE,167,3.0,3.0,45,0.00,,,0.00,0,LWC V2.00 B727,2013-04-01 04:41:00,
2013-03-31 22:46:00,41.7,21.9,30.20,SSE,163,2.0,4.0,45,0.00,,,0.00,0,LWC V2.00 B727,2013-04-01 04:46:00,
2013-03-31 22:51:00,41.8,22.0,30.20,SSE,161,1.0,2.0,45,0.00,,,0.00,0,LWC V2.00 B727,2013-04-01 04:51:00,
2013-03-31 22:56:00,41.9,22.6,30.20,SSE,158,2.0,3.0,46,0.00,,,0.00,0,LWC V2.00 B727,2013-04-01 04:56:00,
2013-03-31 23:01:00,42.0,22.7,30.20,SSE,159,0.0,2.0,46,0.00,,,0.00,0,LWC V2.00 B727,2013-04-01 05:01:00,
2013-03-31 23:06:00,42.2,22.9,30.20,SSE,159,0.0,2.0,46,0.00,,,0.00,0,LWC V2.00 B727,2013-04-01 05:06:00,
2013-03-31 23:11:00,42.3,23.0,30.20,SSE,159,0.0,1.0,46,0.00,,,0.00,0,LWC V2.00 B727,2013-04-01 05:11:00,
2013-03-31 23:16:00,42.4,23.6,30.20,SSE,159,0.0,2.0,47,0.00,,,0.00,0,LWC V2.00 B727,2013-04-01 05:16:00,
2013-03-31 23:21:00,42.6,23.8,30.20,SSE,159,0.0,1.0,47,0.00,,,0.00,0,LWC V2.00 B727,2013-04-01 05:21:00,
2013-03-31 23:26:00,42.7,23.4,30.20,SSE,159,0.0,1.0,46,0.00,,,0.00,0,LWC V2.00 B727,2013-04-01 05:26:00,
2013-03-31 23:31:00,42.7,23.9,30.20,SSE,159,0.0,0.0,47,0.00,,,0.00,0,LWC V2.00 B727,2013-04-01 05:31:00,
2013-03-31 23:36:00,42.8,24.0,30.20,SSE,159,0.0,0.0,47,0.00,,,0.00,0,LWC V2.00 B727,2013-04-01 05:36:00,
2013-03-31 23:41:00,42.8,24.0,30.20,SSE,159,0.0,0.0,47,0.00,,,0.00,0,LWC V2.00 B727,2013-04-01 05:41:00,
2013-03-31 23:46:00,42.8,24.0,30.20,SSE,159,0.0,0.0,47,0.00,,,0.00,0,LWC V2.00 B727,2013-04-01 05:46:00,
2013-03-31 23:51:00,42.7,23.9,30.20,SSE,159,0.0,0.0,47,0.00,,,0.00,0,LWC V2.00 B727,2013-04-01 05:51:00,
2013-03-31 23:56:00,42.6,23.8,30.20,SSE,159,0.0,0.0,47,0.00,,,0.00,0,LWC V2.00 B727,2013-04-01 05:56:00,